Ardmore Seamaster — V7UU8 — position and weather

sailwx.info

Track history (hours):
 
Tides and Currents Weather Stations Pressure Air Temp Water Temp Dewpoint Dewpoint Depression Visibility Wind Speed Wind Dir Waves Ship Positions

Ardmore Seamaster

Last reported at 2016-Jun-13 19:23 UTC. Time now 2016-Jun-25 03:37 UTC.
Position N 29°42' W 089°59'.
Warning: this ship's position is 11 days out of date.

Length 179 m; draft 8.2 m.

Type: Tanker. MMSI: 538004102.

Date/timePositionNaut miles runAvg speedWind from/ knotsBaromVisibWave heightAir tempDewpointWater temp
2016-Jun-13 19:23N 29°42' W 089°59'1112.9
2016-Jun-13 18:34N 29°53' W 089°58'5 5.4
2016-Jun-13 17:33N 29°57' W 090°02'7 7.2
2016-Jun-13 16:33N 29°57' W 090°10'  
2016-Jun-08 15:09N 29°58' W 090°16'1 1.5
2016-Jun-08 14:32N 29°58' W 090°15'13 6.0
2016-Jun-08 12:19N 29°56' W 089°59'6 7.2
2016-Jun-08 11:33N 29°52' W 089°55'8 8.1
2016-Jun-08 10:34N 29°46' W 090°01'  
Track history (hours):
 
Tides and Currents Weather Stations Pressure Air Temp Water Temp Dewpoint Dewpoint Depression Visibility Wind Speed Wind Dir Waves Ship Positions

Ardmore Seamaster

Last reported at 2016-Jun-13 19:23 UTC. Time now 2016-Jun-25 03:37 UTC.
Position N 29°42' W 089°59'.
Warning: this ship's position is 11 days out of date.

Length 179 m; draft 8.2 m.

Type: Tanker. MMSI: 538004102.

Date/timePositionNaut miles runAvg speedWind from/ knotsBaromVisibWave heightAir tempDewpointWater temp
2016-Jun-13 19:23N 29°42' W 089°59'1112.9
2016-Jun-13 18:34N 29°53' W 089°58'5 5.4
2016-Jun-13 17:33N 29°57' W 090°02'7 7.2
2016-Jun-13 16:33N 29°57' W 090°10'  
2016-Jun-08 15:09N 29°58' W 090°16'1 1.5
2016-Jun-08 14:32N 29°58' W 090°15'13 6.0
2016-Jun-08 12:19N 29°56' W 089°59'6 7.2
2016-Jun-08 11:33N 29°52' W 089°55'8 8.1
2016-Jun-08 10:34N 29°46' W 090°01'  

Dump ship's entire track history